Authier-Nord, Canada
Current Conditions -  °F | °C
As of 5:00 AM on Thursday 23 Oct 2014 (Local Time) from CYUY Reporting Station
Clear Clear  
Wind Chill: 23°   Ceiling: Unl
Heat Index: 23°   Visibility: 15mi
Dew Point: 21°   Wind: 2mph
Humidity: 93%   Direction: 90°E
Pressure: 30.25"   Gusts: NA
Location:  48.83°N, 78.87°W
Report Text: CYUY 230900Z 09002KT 15SM SKC M05/M06 A3025 RMK SLP259
Loading
Personal Weather Stations






























Interactive Weather Map
Tropical Storm Tracking
New forecast layout! Learn more

10-Day Weather Forecast

Advertisements
Track Severe Weather on mobile